Zamboanga, Philippines
Current Conditions -  °F | °C
As of 4:00 PM on Tuesday 27 Jan 2015 (Local Time) from RPMZ Reporting Station
Broken Clouds Broken Clouds  
Wind Chill: 88°   Ceiling: 30000
Heat Index: 100°   Visibility: 6mi
Dew Point: 77°   Wind: 7mph
Humidity: 70%   Direction: 90°E
Pressure: 29.8"   Gusts: NA
Location:  6.92°N, 122.08°E
Report Text: RPMZ 270800Z 09006KT 9999 FEW018 SCT100 BKN300 31/25 Q1009 RMK A2980
Loading
Personal Weather Stations






























Interactive Weather Map New forecast layout! Learn more

10-Day Weather Forecast

Advertisements
Track Severe Weather on mobile